Airfield :
LOGIN :

Register | Disclaimer

   EN    FR    IT 

 










Legend :    VFR   Marginal VFR   IFR   Intensive IFR   Very Intensive IFR
Visi :
Ceiling :
>= 8 km
>= 3000ft
5 to 8 km
1000 to 3000 ft
1500m to 5 km
500 to 1000 ft
800 to 1500m
200 to 500 ft
< 800m
< 200 ft
Symbols :   Thunderstorms  Fog  Heavy snow  Heavy precipitations  Wind > 20 kt
SIGMETs :     Misc.  Thunderstorms  Icing  Turbulence  Mountain Waves  Volcanic Ashes






- Airport Elevation : 179 ft
- IATA code : HEL


EFHK - Helsinki Vantaa

CURRENT METAR :
  • 280150Z 31007KT 9999 VCSH FEW035 SCT055CB 11/08 Q1020 BECMG FEW040

EXPIRED METARs :
  • 280120Z 31005KT 9999 -SHRA FEW035 BKN055CB 12/09 Q1020 TEMPO 6000 SHRA
  • 280050Z 30008KT 260V330 9999 VCSH FEW035 FEW040CB 12/08 Q1020 TEMPO 6000 SHRA
  • 280020Z 34008KT 9999 VCSH FEW040CB 12/09 Q1020 NOSIG
  • 272350Z 34008KT 9999 FEW040CB 12/08 Q1020 NOSIG
  • 272320Z 34007KT CAVOK 13/08 Q1020 TEMPO FEW040CB

TAF AMD TAF EFHK
Valid from the 28 at 00:00 until the 29 at 00:00 UTC


280050Z 2800/2824 32009KT CAVOK
TEMPO 2800/2803 6000 SHRA SCT030 FEW040CB
PROB30
TEMPO 2809/2817 SCT050TCU



MET'MAP, your aeronautical weather chart ! - Copyright ORBIFLY December 2007 - Disclaimer

ORBIFLY MET'MAP TEAM :

Programming & Development : Alexandra Zaïnal
Concept & original design : Baudouin d'Aumeries
Assistance for programming : Marc-Olivier Méhu
Technical & hardware support : Manuel Goepfert

Contact : metmap@orbifly.com




SOURCES & CREDITS :

   NOAA